Olcott, New York
Current Conditions -  °F | °C
As of 4:53 AM on Monday 22 Dec 2014 (Local Time) from KIAG Reporting Station
Overcast Overcast  
Wind Chill: 24°   Ceiling: 1900
Heat Index: 30°   Visibility: 10mi
Dew Point: 24°   Wind: 6mph
Humidity: 79%   Direction: 100°E
Pressure: 30.2"   Gusts: NA
Location:  43.34°N, 78.71°W
Report Text: KIAG 220953Z AUTO 10005KT 10SM OVC019 M01/M04 A3020 RMK AO2 SLP243 T10111044
Loading
Personal Weather Stations






























Interactive Weather Map New forecast layout! Learn more

10-Day Weather Forecast

Advertisements
Track Severe Weather on mobile